Time;durP1;ratioP1;P1;durP2;ratioP2;P2;SDS_P1;SDS_P2;PMS_P1;PMS_P2;Temp;Humidity;BMP_temperature;BMP_pressure;BME280_temperature;BME280_humidity;BME280_pressure;Samples;Min_cycle;Max_cycle;Signal;HPM_P1;HPM_P2
2022/01/23 00:02:10;;;;;;;20.75;11.50;;;;;;;;;;4999781;28;20851;-68
2022/01/23 00:04:37;;;;;;;23.40;11.75;;;;;;;;;;4973791;28;20026;-69
2022/01/23 00:07:06;;;;;;;22.80;10.75;;;;;;;;;;4985746;28;20026;-69
2022/01/23 00:09:32;;;;;;;23.00;12.05;;;;;;;;;;4985678;28;20025;-69
2022/01/23 00:12:02;;;;;;;24.55;11.60;;;;;;;;;;4978924;28;20125;-69
2022/01/23 00:19:43;;;;;;;25.65;12.35;;;;;;;;;;4981869;28;20582;-69
2022/01/23 00:22:10;;;;;;;17.85;11.50;;;;;;;;;;4978952;28;20058;-70
2022/01/23 00:30:21;;;;;;;25.48;11.30;;;;;;;;;;4974707;28;20097;-69
2022/01/23 00:32:47;;;;;;;20.73;13.05;;;;;;;;;;4991309;28;20074;-70
2022/01/23 00:35:14;;;;;;;22.55;12.55;;;;;;;;;;4985522;28;20062;-69
2022/01/23 00:37:41;;;;;;;23.58;13.43;;;;;;;;;;4979738;28;20535;-69
2022/01/23 00:40:08;;;;;;;22.50;13.38;;;;;;;;;;4975974;28;20034;-71
2022/01/23 00:42:35;;;;;;;26.63;13.88;;;;;;;;;;4992170;28;20030;-70
2022/01/23 00:45:25;;;;;;;24.95;14.00;;;;;;;;;;4977949;28;20027;-70
2022/01/23 00:47:49;;;;;;;26.80;14.18;;;;;;;;;;4981630;28;20582;-69
2022/01/23 00:50:18;;;;;;;32.05;14.55;;;;;;;;;;4982491;28;20050;-68
2022/01/23 00:52:44;;;;;;;34.42;15.25;;;;;;;;;;5001493;28;20126;-68
2022/01/23 00:55:10;;;;;;;28.30;14.35;;;;;;;;;;4985926;28;20125;-69
2022/01/23 00:57:38;;;;;;;27.88;14.65;;;;;;;;;;4982356;28;20062;-69
2022/01/23 01:00:05;;;;;;;26.63;15.30;;;;;;;;;;4974699;28;20037;-69
2022/01/23 01:02:31;;;;;;;28.65;15.02;;;;;;;;;;4982837;28;20033;-69
2022/01/23 01:04:57;;;;;;;31.55;16.05;;;;;;;;;;4984586;28;20093;-68
2022/01/23 01:07:23;;;;;;;27.20;15.40;;;;;;;;;;4982245;28;20073;-70
2022/01/23 01:09:52;;;;;;;31.25;15.45;;;;;;;;;;4982649;28;20026;-68
2022/01/23 01:12:27;;;;;;;52.97;18.70;;;;;;;;;;4982457;28;20496;-69
2022/01/23 01:31:08;;;;;;;35.33;19.25;;;;;;;;;;4983369;28;20046;-70
2022/01/23 01:33:45;;;;;;;30.30;18.00;;;;;;;;;;4977354;28;20035;-70
2022/01/23 01:36:31;;;;;;;36.70;18.13;;;;;;;;;;4981859;28;20038;-70
2022/01/23 01:38:57;;;;;;;33.22;18.10;;;;;;;;;;4984528;28;20042;-71
2022/01/23 01:41:23;;;;;;;41.70;17.85;;;;;;;;;;4973824;28;20121;-70
2022/01/23 01:43:49;;;;;;;38.85;18.35;;;;;;;;;;4974288;28;20079;-70
2022/01/23 01:46:15;;;;;;;35.25;17.95;;;;;;;;;;4975308;28;20034;-69
2022/01/23 01:48:41;;;;;;;49.08;20.58;;;;;;;;;;4974128;28;20066;-69
2022/01/23 01:51:13;;;;;;;47.35;21.30;;;;;;;;;;4978671;28;20077;-70
2022/01/23 01:53:39;;;;;;;39.55;19.90;;;;;;;;;;4979077;28;20027;-70
2022/01/23 01:56:07;;;;;;;40.67;20.83;;;;;;;;;;4975169;28;20096;-69
2022/01/23 02:02:39;;;;;;;45.38;21.48;;;;;;;;;;4983967;28;20121;-71
2022/01/23 02:09:28;;;;;;;42.72;21.20;;;;;;;;;;4987163;28;20033;-69
2022/01/23 03:00:15;;;;;;;51.70;23.92;;;;;;;;;;4979154;28;20552;-70
2022/01/23 03:02:47;;;;;;;43.53;23.08;;;;;;;;;;4986203;28;20034;-70
2022/01/23 03:05:25;;;;;;;53.75;24.98;;;;;;;;;;4978288;28;20042;-70
2022/01/23 03:08:06;;;;;;;54.85;24.35;;;;;;;;;;4971116;28;20026;-70
2022/01/23 03:26:35;;;;;;;49.80;25.33;;;;;;;;;;4978470;28;20045;-69
2022/01/23 03:29:18;;;;;;;49.25;25.05;;;;;;;;;;4984545;28;20045;-69
2022/01/23 03:32:00;;;;;;;57.45;26.65;;;;;;;;;;4985886;28;20085;-68
2022/01/23 03:34:27;;;;;;;50.50;23.42;;;;;;;;;;4984978;28;20081;-69
2022/01/23 03:36:55;;;;;;;55.88;24.27;;;;;;;;;;4975969;28;20053;-69
2022/01/23 03:39:21;;;;;;;58.95;24.05;;;;;;;;;;4981741;28;20038;-68
2022/01/23 03:41:47;;;;;;;48.63;22.25;;;;;;;;;;4986823;28;20030;-69
2022/01/23 03:44:36;;;;;;;40.20;19.15;;;;;;;;;;4986271;28;20034;-69
2022/01/23 03:47:21;;;;;;;39.63;19.13;;;;;;;;;;4982122;28;20293;-69
2022/01/23 03:49:48;;;;;;;46.10;16.83;;;;;;;;;;4983795;28;20101;-69
2022/01/23 03:52:15;;;;;;;35.15;17.38;;;;;;;;;;4976698;28;20086;-70
2022/01/23 03:54:41;;;;;;;38.03;15.90;;;;;;;;;;4988093;28;20030;-69
2022/01/23 03:57:08;;;;;;;32.15;13.15;;;;;;;;;;4980053;28;20066;-69
2022/01/23 03:59:35;;;;;;;32.55;13.65;;;;;;;;;;4987495;28;20110;-69
2022/01/23 04:02:01;;;;;;;30.80;13.77;;;;;;;;;;4977436;28;20101;-69
2022/01/23 04:06:53;;;;;;;27.67;13.00;;;;;;;;;;4980312;28;20031;-69
2022/01/23 04:09:19;;;;;;;32.83;13.43;;;;;;;;;;4982452;28;20166;-69
2022/01/23 04:11:46;;;;;;;35.17;14.13;;;;;;;;;;4978620;28;20030;-71
2022/01/23 04:14:14;;;;;;;34.75;13.98;;;;;;;;;;4982060;28;20039;-68
2022/01/23 04:17:26;;;;;;;31.00;14.02;;;;;;;;;;4998316;28;20031;-68
2022/01/23 04:33:24;;;;;;;35.85;17.45;;;;;;;;;;4979509;28;20046;-69
2022/01/23 04:59:54;;;;;;;48.97;21.90;;;;;;;;;;4986403;28;20111;-70
2022/01/23 05:05:18;;;;;;;46.58;21.98;;;;;;;;;;4980461;28;20046;-71
2022/01/23 05:07:46;;;;;;;48.65;21.88;;;;;;;;;;4991806;28;20495;-70
2022/01/23 05:10:12;;;;;;;49.00;21.55;;;;;;;;;;4981256;28;20029;-69
2022/01/23 05:12:38;;;;;;;53.92;21.63;;;;;;;;;;4987870;28;20090;-69
2022/01/23 05:15:07;;;;;;;51.70;22.38;;;;;;;;;;4979769;28;20128;-69
2022/01/23 05:17:34;;;;;;;54.60;22.50;;;;;;;;;;4982408;28;20034;-69
2022/01/23 05:20:00;;;;;;;50.40;21.33;;;;;;;;;;4977422;28;20031;-68
2022/01/23 05:22:34;;;;;;;54.97;22.80;;;;;;;;;;4982656;28;20496;-68
2022/01/23 05:25:17;;;;;;;54.75;22.27;;;;;;;;;;4979495;28;20476;-69
2022/01/23 05:27:44;;;;;;;60.45;23.38;;;;;;;;;;4977958;28;20339;-69
2022/01/23 05:30:10;;;;;;;55.15;22.17;;;;;;;;;;4995648;28;20054;-70
2022/01/23 05:32:41;;;;;;;58.22;23.63;;;;;;;;;;4979086;28;20046;-69
2022/01/23 05:35:08;;;;;;;60.30;22.58;;;;;;;;;;4977709;28;20066;-69
2022/01/23 05:37:35;;;;;;;56.13;22.10;;;;;;;;;;4996608;28;20119;-69
2022/01/23 05:40:01;;;;;;;53.78;23.17;;;;;;;;;;4984141;28;20023;-69
2022/01/23 05:42:27;;;;;;;53.63;22.77;;;;;;;;;;4982509;28;20054;-70
2022/01/23 05:44:53;;;;;;;60.72;22.40;;;;;;;;;;4980583;28;20030;-70
2022/01/23 05:47:19;;;;;;;62.88;23.60;;;;;;;;;;4975616;28;20086;-69
2022/01/23 05:49:45;;;;;;;61.60;23.95;;;;;;;;;;4971964;28;20029;-70
2022/01/23 05:52:11;;;;;;;56.88;23.85;;;;;;;;;;4972337;28;20481;-70
2022/01/23 05:54:37;;;;;;;53.97;22.25;;;;;;;;;;4991820;28;20070;-69
2022/01/23 05:57:04;;;;;;;55.13;21.85;;;;;;;;;;4986358;28;20503;-69
2022/01/23 05:59:30;;;;;;;50.85;21.13;;;;;;;;;;4988589;28;20030;-69
2022/01/23 06:01:56;;;;;;;63.70;22.13;;;;;;;;;;4975853;28;20121;-70
2022/01/23 06:04:22;;;;;;;58.75;22.05;;;;;;;;;;4992225;28;20039;-70
2022/01/23 06:06:49;;;;;;;52.17;21.33;;;;;;;;;;4986852;28;20036;-70
2022/01/23 06:09:21;;;;;;;56.00;22.95;;;;;;;;;;4982927;28;20035;-70
2022/01/23 06:11:47;;;;;;;56.78;23.35;;;;;;;;;;4977659;28;20548;-70
2022/01/23 06:14:13;;;;;;;58.80;23.45;;;;;;;;;;4982741;28;20026;-69
2022/01/23 06:16:40;;;;;;;54.70;22.38;;;;;;;;;;4978369;28;20042;-69
2022/01/23 06:19:06;;;;;;;58.20;23.13;;;;;;;;;;4983677;28;20037;-69
2022/01/23 06:21:32;;;;;;;57.03;23.08;;;;;;;;;;4984018;28;20154;-69
2022/01/23 06:26:55;;;;;;;57.70;21.85;;;;;;;;;;4976371;28;20046;-70
2022/01/23 06:29:21;;;;;;;55.42;21.38;;;;;;;;;;4986687;28;20395;-70
2022/01/23 06:31:48;;;;;;;49.90;20.35;;;;;;;;;;4974199;28;20133;-70
2022/01/23 06:34:15;;;;;;;50.88;20.77;;;;;;;;;;4971478;28;20030;-70
2022/01/23 06:36:42;;;;;;;54.85;20.73;;;;;;;;;;4978426;28;20472;-68
2022/01/23 06:39:09;;;;;;;62.65;21.67;;;;;;;;;;4977590;28;20029;-68
2022/01/23 06:41:35;;;;;;;56.40;20.48;;;;;;;;;;4971977;28;20534;-69
2022/01/23 06:44:01;;;;;;;53.55;21.50;;;;;;;;;;4986377;28;20511;-70
2022/01/23 06:46:28;;;;;;;61.30;21.02;;;;;;;;;;4978072;28;20038;-68
2022/01/23 06:48:54;;;;;;;50.30;18.85;;;;;;;;;;4974111;28;20036;-69
2022/01/23 06:51:20;;;;;;;57.72;20.75;;;;;;;;;;4981758;28;20022;-69
2022/01/23 06:53:46;;;;;;;49.58;19.67;;;;;;;;;;4973819;28;20500;-70
2022/01/23 06:56:12;;;;;;;50.15;19.90;;;;;;;;;;4990109;28;20138;-68
2022/01/23 06:58:38;;;;;;;54.63;19.42;;;;;;;;;;4990464;28;20531;-70
2022/01/23 07:01:07;;;;;;;43.38;19.65;;;;;;;;;;4977961;28;20042;-70
2022/01/23 07:03:33;;;;;;;55.17;21.38;;;;;;;;;;5005464;28;20110;-70
2022/01/23 07:05:59;;;;;;;49.20;19.42;;;;;;;;;;4978449;28;20065;-69
2022/01/23 07:08:25;;;;;;;50.38;19.40;;;;;;;;;;4985469;28;20027;-71
2022/01/23 07:10:51;;;;;;;62.22;20.85;;;;;;;;;;4983214;28;20047;-69
2022/01/23 07:13:17;;;;;;;48.47;20.15;;;;;;;;;;4992127;28;20081;-70
2022/01/23 07:15:44;;;;;;;52.45;19.88;;;;;;;;;;4991266;28;20030;-68
2022/01/23 07:18:10;;;;;;;47.08;19.05;;;;;;;;;;4985282;28;20031;-68
2022/01/23 07:20:36;;;;;;;50.00;18.65;;;;;;;;;;4983379;28;20380;-68
2022/01/23 07:23:02;;;;;;;49.17;19.40;;;;;;;;;;4985494;28;20107;-67
2022/01/23 07:25:28;;;;;;;57.67;21.20;;;;;;;;;;4986011;28;20396;-68
2022/01/23 07:27:57;;;;;;;56.55;20.75;;;;;;;;;;4986446;28;20053;-68
2022/01/23 07:32:52;;;;;;;50.25;20.67;;;;;;;;;;4981240;28;20374;-69
2022/01/23 07:35:18;;;;;;;46.78;18.80;;;;;;;;;;4979514;28;20100;-68
2022/01/23 07:37:44;;;;;;;45.72;19.23;;;;;;;;;;4990748;28;20041;-69
2022/01/23 07:40:10;;;;;;;42.83;18.13;;;;;;;;;;4981295;28;20047;-70
2022/01/23 07:42:36;;;;;;;57.47;22.95;;;;;;;;;;4982297;28;20039;-69
2022/01/23 07:45:03;;;;;;;60.22;23.95;;;;;;;;;;4979217;28;20046;-70
2022/01/23 07:47:29;;;;;;;54.88;22.23;;;;;;;;;;4984956;28;20037;-69
2022/01/23 07:49:56;;;;;;;54.67;21.30;;;;;;;;;;4984372;28;20086;-69
2022/01/23 07:52:23;;;;;;;51.90;20.95;;;;;;;;;;4983632;28;20034;-70
2022/01/23 07:54:49;;;;;;;51.30;20.05;;;;;;;;;;5016787;28;20133;-71
2022/01/23 07:57:15;;;;;;;53.35;20.70;;;;;;;;;;4987052;28;20515;-71
2022/01/23 07:59:41;;;;;;;51.60;20.35;;;;;;;;;;4976862;28;20037;-70
2022/01/23 08:02:07;;;;;;;49.58;20.13;;;;;;;;;;4978745;28;20045;-70
2022/01/23 08:04:33;;;;;;;45.17;19.40;;;;;;;;;;4995896;28;20125;-71
2022/01/23 08:07:11;;;;;;;52.47;24.77;;;;;;;;;;4975897;28;20467;-71
2022/01/23 08:09:37;;;;;;;47.67;21.67;;;;;;;;;;4981680;28;20030;-70
2022/01/23 08:12:04;;;;;;;44.55;18.50;;;;;;;;;;4979597;28;20031;-69
2022/01/23 08:14:30;;;;;;;47.95;19.63;;;;;;;;;;4990694;28;20027;-70
2022/01/23 08:16:56;;;;;;;47.25;19.92;;;;;;;;;;4982545;28;20031;-70
2022/01/23 08:19:22;;;;;;;47.15;19.48;;;;;;;;;;4980955;28;20468;-70
2022/01/23 08:21:48;;;;;;;51.65;21.35;;;;;;;;;;4973182;28;20559;-70
2022/01/23 08:24:14;;;;;;;42.40;19.13;;;;;;;;;;4988830;28;20245;-70
2022/01/23 08:26:40;;;;;;;47.25;20.98;;;;;;;;;;4985717;28;20484;-70
2022/01/23 08:29:07;;;;;;;47.35;19.17;;;;;;;;;;4976477;28;20531;-70
2022/01/23 08:31:33;;;;;;;47.92;20.33;;;;;;;;;;4983537;28;20030;-71
2022/01/23 08:33:59;;;;;;;40.78;18.15;;;;;;;;;;4976928;28;20120;-71
2022/01/23 08:36:25;;;;;;;41.53;18.33;;;;;;;;;;4976434;28;20070;-71
2022/01/23 08:38:51;;;;;;;43.60;17.65;;;;;;;;;;4989360;28;20034;-70
2022/01/23 08:44:02;;;;;;;39.05;16.42;;;;;;;;;;4988053;28;20045;-71
2022/01/23 08:46:28;;;;;;;31.92;15.05;;;;;;;;;;4978734;28;20034;-70
2022/01/23 08:48:56;;;;;;;31.52;14.90;;;;;;;;;;4994687;28;20039;-70
2022/01/23 08:51:22;;;;;;;32.13;15.02;;;;;;;;;;4978375;28;20037;-71
2022/01/23 08:53:48;;;;;;;29.70;15.70;;;;;;;;;;4982880;28;20205;-70
2022/01/23 08:56:14;;;;;;;37.38;17.75;;;;;;;;;;4981859;28;20038;-71
2022/01/23 08:58:41;;;;;;;30.08;14.73;;;;;;;;;;4999931;28;20146;-71
2022/01/23 09:01:07;;;;;;;29.98;14.60;;;;;;;;;;4989177;28;20031;-71
2022/01/23 09:03:33;;;;;;;31.13;15.85;;;;;;;;;;4978997;28;20039;-71
2022/01/23 09:05:59;;;;;;;35.30;16.77;;;;;;;;;;4984534;28;20309;-70
2022/01/23 09:08:25;;;;;;;33.35;17.33;;;;;;;;;;4992350;28;20031;-70
2022/01/23 09:10:54;;;;;;;35.70;17.40;;;;;;;;;;4997850;28;20059;-71
2022/01/23 09:14:05;;;;;;;33.88;16.17;;;;;;;;;;4985201;28;20488;-71
2022/01/23 09:16:14;;;;;;;38.58;17.83;;;;;;;;;;4978924;28;20047;-70
2022/01/23 09:18:40;;;;;;;37.95;16.98;;;;;;;;;;4976622;28;20026;-69
2022/01/23 09:21:06;;;;;;;34.90;17.13;;;;;;;;;;4976443;28;20034;-70
2022/01/23 09:23:32;;;;;;;36.60;18.17;;;;;;;;;;4973044;28;20039;-70
2022/01/23 09:26:01;;;;;;;32.17;18.58;;;;;;;;;;4974334;28;20500;-70
2022/01/23 09:28:32;;;;;;;37.92;19.30;;;;;;;;;;4979804;28;20232;-69
2022/01/23 09:30:59;;;;;;;39.97;22.48;;;;;;;;;;4993609;28;20031;-69
2022/01/23 09:33:25;;;;;;;38.50;19.95;;;;;;;;;;4978063;28;20157;-70
2022/01/23 09:35:51;;;;;;;38.05;19.55;;;;;;;;;;4992253;28;20503;-69
2022/01/23 09:38:17;;;;;;;38.75;19.30;;;;;;;;;;4978885;28;20117;-69
2022/01/23 09:40:43;;;;;;;33.13;19.60;;;;;;;;;;4972210;28;20121;-69
2022/01/23 09:43:12;;;;;;;37.97;18.85;;;;;;;;;;4983282;28;20205;-70
2022/01/23 09:45:39;;;;;;;36.67;19.60;;;;;;;;;;4979536;28;20116;-70
2022/01/23 09:48:05;;;;;;;35.55;19.63;;;;;;;;;;4983733;28;20026;-71
2022/01/23 09:50:32;;;;;;;43.17;21.42;;;;;;;;;;4979166;28;20093;-69
2022/01/23 09:52:58;;;;;;;39.60;22.25;;;;;;;;;;4984635;28;20037;-69
2022/01/23 09:55:26;;;;;;;45.22;23.90;;;;;;;;;;4976548;28;20027;-70
2022/01/23 09:57:52;;;;;;;34.92;20.90;;;;;;;;;;4973877;28;20039;-70
2022/01/23 10:00:25;;;;;;;41.42;23.40;;;;;;;;;;4975705;28;20050;-71
2022/01/23 10:02:52;;;;;;;39.88;20.70;;;;;;;;;;4977377;28;20023;-70
2022/01/23 10:05:18;;;;;;;39.20;22.70;;;;;;;;;;4978884;28;20035;-70
2022/01/23 10:07:45;;;;;;;34.75;20.08;;;;;;;;;;4989683;28;20031;-70
2022/01/23 10:10:23;;;;;;;41.13;22.55;;;;;;;;;;4977188;28;20064;-69
2022/01/23 10:12:51;;;;;;;39.17;21.33;;;;;;;;;;4977749;28;20055;-70
2022/01/23 10:15:18;;;;;;;38.65;22.00;;;;;;;;;;4978234;28;20213;-71
2022/01/23 10:17:44;;;;;;;41.05;21.10;;;;;;;;;;4978261;28;20061;-70
2022/01/23 10:20:12;;;;;;;42.38;21.75;;;;;;;;;;4974907;28;20607;-70
2022/01/23 10:22:40;;;;;;;35.58;21.30;;;;;;;;;;4982590;28;20121;-70
2022/01/23 10:25:07;;;;;;;38.17;21.95;;;;;;;;;;4981337;28;20066;-70
2022/01/23 10:27:52;;;;;;;39.25;22.63;;;;;;;;;;4981382;28;20578;-72
2022/01/23 10:30:23;;;;;;;42.10;22.23;;;;;;;;;;4982103;28;20031;-71
2022/01/23 10:32:57;;;;;;;36.72;21.75;;;;;;;;;;4973999;28;20022;-71
2022/01/23 10:35:23;;;;;;;43.92;23.63;;;;;;;;;;4976991;28;20038;-71
2022/01/23 10:37:51;;;;;;;43.17;25.83;;;;;;;;;;4977894;28;20050;-70
2022/01/23 10:40:33;;;;;;;42.25;24.95;;;;;;;;;;4980997;28;20027;-70
2022/01/23 10:51:17;;;;;;;45.40;25.83;;;;;;;;;;4983510;28;20037;-71
2022/01/23 10:53:57;;;;;;;39.95;24.65;;;;;;;;;;4983331;28;20073;-70
2022/01/23 10:56:23;;;;;;;39.55;23.80;;;;;;;;;;4976769;28;20035;-70
2022/01/23 10:59:07;;;;;;;42.00;22.77;;;;;;;;;;4993108;28;20496;-70
2022/01/23 11:01:33;;;;;;;48.85;25.92;;;;;;;;;;4990499;28;20031;-70
2022/01/23 11:04:17;;;;;;;44.83;25.27;;;;;;;;;;4974147;28;20050;-71
2022/01/23 11:06:54;;;;;;;43.08;23.60;;;;;;;;;;4994088;28;20074;-70
2022/01/23 11:09:25;;;;;;;40.63;23.00;;;;;;;;;;4974502;28;20066;-70
2022/01/23 11:11:59;;;;;;;37.70;22.02;;;;;;;;;;4992634;28;20036;-72
2022/01/23 11:17:23;;;;;;;41.30;23.95;;;;;;;;;;4982155;28;20089;-69
2022/01/23 11:19:59;;;;;;;43.88;24.90;;;;;;;;;;4979898;28;20113;-70
2022/01/23 11:22:44;;;;;;;44.70;24.83;;;;;;;;;;4982218;28;20050;-70
2022/01/23 11:25:11;;;;;;;45.70;25.40;;;;;;;;;;4975091;28;20480;-70
2022/01/23 11:27:38;;;;;;;41.60;24.95;;;;;;;;;;4977352;28;20159;-71
2022/01/23 11:30:07;;;;;;;45.50;27.98;;;;;;;;;;4980898;28;20108;-71
2022/01/23 11:32:37;;;;;;;45.33;26.00;;;;;;;;;;4980669;28;20062;-70
2022/01/23 11:35:09;;;;;;;41.30;24.35;;;;;;;;;;4979281;28;20030;-70
2022/01/23 11:37:36;;;;;;;40.92;23.92;;;;;;;;;;4995481;28;20177;-71
2022/01/23 11:40:11;;;;;;;39.17;23.33;;;;;;;;;;4975257;28;20081;-70
2022/01/23 11:53:42;;;;;;;34.95;20.20;;;;;;;;;;4986505;28;20045;-70
2022/01/23 11:53:57;;;;;;;44.63;22.35;;;;;;;;;;4977918;28;20496;-70
2022/01/23 11:56:48;;;;;;;40.45;21.88;;;;;;;;;;4999271;28;20540;-71
2022/01/23 11:59:26;;;;;;;30.83;18.08;;;;;;;;;;4977674;28;20082;-71
2022/01/23 12:05:13;;;;;;;26.73;15.00;;;;;;;;;;5000862;28;20039;-70
2022/01/23 12:07:40;;;;;;;34.72;16.65;;;;;;;;;;4985681;28;20031;-70
2022/01/23 12:10:11;;;;;;;36.75;18.85;;;;;;;;;;4983240;28;20030;-70
2022/01/23 12:12:44;;;;;;;36.63;18.95;;;;;;;;;;4977469;28;20349;-70
2022/01/23 12:18:15;;;;;;;32.75;17.25;;;;;;;;;;4984085;28;20050;-71
2022/01/23 12:20:42;;;;;;;34.30;18.25;;;;;;;;;;4974182;28;20097;-70
2022/01/23 12:23:08;;;;;;;32.13;17.63;;;;;;;;;;4987085;28;20050;-70
2022/01/23 12:25:51;;;;;;;32.45;17.45;;;;;;;;;;4980237;28;20027;-71
2022/01/23 12:28:20;;;;;;;32.92;17.08;;;;;;;;;;4986871;28;20039;-70
2022/01/23 12:30:47;;;;;;;33.85;17.58;;;;;;;;;;4983947;28;20317;-70
2022/01/23 12:33:13;;;;;;;32.72;18.02;;;;;;;;;;4986519;28;20041;-70
2022/01/23 12:35:39;;;;;;;32.70;17.80;;;;;;;;;;4985459;28;20045;-70
2022/01/23 12:38:06;;;;;;;32.25;18.52;;;;;;;;;;4976904;28;20041;-69
2022/01/23 12:40:37;;;;;;;30.92;16.67;;;;;;;;;;4975050;28;20023;-70
2022/01/23 12:43:24;;;;;;;29.77;17.45;;;;;;;;;;4977913;28;20027;-69
2022/01/23 12:45:52;;;;;;;31.30;16.75;;;;;;;;;;4977186;28;20019;-70
2022/01/23 12:48:31;;;;;;;39.95;19.88;;;;;;;;;;4985971;28;20057;-71
2022/01/23 12:50:59;;;;;;;34.10;18.10;;;;;;;;;;4979427;28;20117;-70
2022/01/23 12:53:38;;;;;;;24.63;15.60;;;;;;;;;;4972745;28;20046;-70
2022/01/23 12:56:04;;;;;;;26.23;14.60;;;;;;;;;;4986491;28;20026;-70
2022/01/23 12:58:33;;;;;;;26.27;15.02;;;;;;;;;;4976042;28;20043;-69
2022/01/23 13:00:59;;;;;;;23.98;12.93;;;;;;;;;;4979381;28;20101;-70
2022/01/23 13:03:26;;;;;;;24.52;13.75;;;;;;;;;;4983725;28;20054;-71
2022/01/23 13:05:52;;;;;;;22.88;12.65;;;;;;;;;;4980319;28;20030;-71
2022/01/23 13:08:31;;;;;;;22.15;13.10;;;;;;;;;;4975885;28;20026;-70
2022/01/23 13:13:47;;;;;;;21.30;13.63;;;;;;;;;;4982382;28;20030;-70
2022/01/23 13:16:22;;;;;;;27.95;15.35;;;;;;;;;;4982228;28;20026;-71
2022/01/23 13:28:52;;;;;;;19.40;11.52;;;;;;;;;;4941583;28;20036;-70
2022/01/23 13:30:48;;;;;;;25.20;13.90;;;;;;;;;;4944567;28;20032;-70
2022/01/23 13:33:19;;;;;;;22.67;13.98;;;;;;;;;;4973270;28;20112;-70
2022/01/23 13:35:50;;;;;;;29.13;14.73;;;;;;;;;;4985786;28;20041;-69
2022/01/23 13:38:17;;;;;;;;;;;;;;;;;;4979490;28;20025;-69
2022/01/23 13:40:43;;;;;;;28.27;14.45;;;;;;;;;;4972479;28;19910;-70
2022/01/23 14:04:23;;;;;;;21.88;13.90;;;;;;;;;;4981802;28;20058;-70
2022/01/23 14:06:50;;;;;;;22.83;15.05;;;;;;;;;;4977839;28;20121;-70
2022/01/23 14:09:17;;;;;;;21.30;14.18;;;;;;;;;;4974714;28;20469;-70
2022/01/23 14:11:44;;;;;;;25.42;15.43;;;;;;;;;;4997820;28;20033;-70
2022/01/23 14:14:10;;;;;;;26.27;14.77;;;;;;;;;;4971752;28;20026;-69
2022/01/23 14:16:36;;;;;;;26.20;14.48;;;;;;;;;;4980900;28;20089;-70
2022/01/23 14:19:15;;;;;;;26.35;16.42;;;;;;;;;;4991391;28;20031;-70
2022/01/23 14:21:42;;;;;;;25.50;15.27;;;;;;;;;;4974389;28;20030;-69
2022/01/23 14:24:08;;;;;;;33.80;17.33;;;;;;;;;;4978755;28;20069;-68
2022/01/23 14:26:35;;;;;;;28.58;16.80;;;;;;;;;;4981122;28;20114;-70
2022/01/23 14:29:05;;;;;;;30.20;17.58;;;;;;;;;;4978365;28;20137;-69
2022/01/23 14:31:40;;;;;;;30.85;17.55;;;;;;;;;;4978366;28;20034;-70
2022/01/23 14:34:23;;;;;;;32.83;18.17;;;;;;;;;;4982213;28;20172;-71
2022/01/23 14:36:55;;;;;;;29.00;17.20;;;;;;;;;;4992935;28;20045;-70
2022/01/23 14:39:23;;;;;;;28.50;17.95;;;;;;;;;;5005536;28;20034;-70
2022/01/23 14:41:49;;;;;;;30.90;18.13;;;;;;;;;;4974653;28;20058;-70
2022/01/23 14:44:20;;;;;;;29.85;17.85;;;;;;;;;;4979653;28;20042;-69
2022/01/23 14:46:47;;;;;;;33.13;18.08;;;;;;;;;;4981347;28;20084;-70
2022/01/23 14:49:21;;;;;;;29.40;18.20;;;;;;;;;;4976107;28;20157;-69
2022/01/23 14:51:47;;;;;;;30.60;17.92;;;;;;;;;;4999858;28;20037;-70
2022/01/23 14:54:14;;;;;;;30.60;18.63;;;;;;;;;;4971348;28;20077;-70
2022/01/23 14:56:40;;;;;;;29.48;18.00;;;;;;;;;;4978542;28;20465;-69
2022/01/23 14:59:10;;;;;;;32.67;19.08;;;;;;;;;;4983803;28;20472;-69
2022/01/23 15:01:37;;;;;;;32.60;19.25;;;;;;;;;;4985667;28;20030;-70
2022/01/23 15:04:08;;;;;;;33.63;20.75;;;;;;;;;;4977433;28;20537;-70
2022/01/23 15:06:35;;;;;;;30.52;19.52;;;;;;;;;;4977608;28;20026;-70
2022/01/23 15:09:08;;;;;;;32.85;20.52;;;;;;;;;;4975128;28;20070;-71
2022/01/23 15:11:34;;;;;;;30.33;18.98;;;;;;;;;;4977501;28;20018;-71
2022/01/23 15:14:00;;;;;;;41.03;19.52;;;;;;;;;;4988520;28;20018;-70
2022/01/23 15:16:26;;;;;;;32.53;19.73;;;;;;;;;;4988237;28;20030;-71
2022/01/23 15:18:52;;;;;;;33.72;20.15;;;;;;;;;;4984589;28;20554;-70
2022/01/23 15:21:18;;;;;;;33.03;19.98;;;;;;;;;;4987867;28;20049;-70
2022/01/23 15:23:44;;;;;;;32.83;19.85;;;;;;;;;;4987300;28;20061;-70
2022/01/23 15:26:11;;;;;;;35.15;20.90;;;;;;;;;;4989010;28;20045;-70
2022/01/23 15:28:37;;;;;;;34.97;21.02;;;;;;;;;;4979144;28;20468;-71
2022/01/23 15:31:03;;;;;;;36.92;21.30;;;;;;;;;;4976375;28;20085;-71
2022/01/23 15:33:29;;;;;;;34.28;20.48;;;;;;;;;;4981868;28;20023;-70
2022/01/23 15:35:55;;;;;;;42.10;21.77;;;;;;;;;;4984399;28;20027;-70
2022/01/23 15:38:22;;;;;;;39.85;22.05;;;;;;;;;;4988625;28;20034;-70
2022/01/23 15:40:51;;;;;;;33.15;20.98;;;;;;;;;;5003752;28;20037;-69
2022/01/23 15:43:17;;;;;;;34.13;21.58;;;;;;;;;;4979252;28;20062;-70
2022/01/23 15:45:45;;;;;;;39.78;20.65;;;;;;;;;;4976548;28;20018;-69
2022/01/23 15:48:11;;;;;;;38.63;21.48;;;;;;;;;;4979308;28;20042;-70
2022/01/23 15:50:37;;;;;;;39.85;23.23;;;;;;;;;;4988223;28;20177;-70
2022/01/23 15:53:03;;;;;;;37.90;22.45;;;;;;;;;;4985601;28;20031;-69
2022/01/23 15:55:29;;;;;;;33.53;21.08;;;;;;;;;;4975183;28;20101;-70
2022/01/23 15:57:56;;;;;;;44.65;23.23;;;;;;;;;;4977865;28;20050;-70
2022/01/23 16:00:23;;;;;;;49.22;28.70;;;;;;;;;;4982381;28;20030;-69
2022/01/23 16:02:49;;;;;;;40.85;23.83;;;;;;;;;;4978239;28;20035;-70
2022/01/23 16:05:16;;;;;;;37.13;22.70;;;;;;;;;;4983755;28;20117;-70
2022/01/23 16:07:42;;;;;;;41.58;25.27;;;;;;;;;;4986931;28;20037;-71
2022/01/23 16:10:09;;;;;;;44.47;27.13;;;;;;;;;;4978508;28;20031;-69
2022/01/23 16:12:37;;;;;;;46.38;27.35;;;;;;;;;;4992642;28;20062;-69
2022/01/23 16:15:04;;;;;;;55.72;31.40;;;;;;;;;;4977948;28;20459;-70
2022/01/23 16:17:30;;;;;;;46.53;27.25;;;;;;;;;;4974045;28;20054;-69
2022/01/23 16:19:58;;;;;;;40.00;24.23;;;;;;;;;;4995914;28;20101;-69
2022/01/23 16:22:24;;;;;;;44.72;25.00;;;;;;;;;;4974472;28;20034;-71
2022/01/23 16:24:50;;;;;;;38.25;23.88;;;;;;;;;;4987423;28;20093;-70
2022/01/23 16:27:16;;;;;;;39.70;22.92;;;;;;;;;;4987005;28;20035;-70
2022/01/23 16:29:42;;;;;;;43.17;25.60;;;;;;;;;;4980828;28;20034;-70
2022/01/23 16:32:09;;;;;;;47.08;28.27;;;;;;;;;;4987049;28;20053;-70
2022/01/23 16:34:36;;;;;;;45.55;27.38;;;;;;;;;;4979895;28;20027;-70
2022/01/23 16:37:03;;;;;;;45.13;27.20;;;;;;;;;;5005359;28;20077;-70
2022/01/23 16:39:29;;;;;;;42.20;25.80;;;;;;;;;;4980602;28;20026;-70
2022/01/23 16:41:55;;;;;;;44.90;25.70;;;;;;;;;;4974908;28;20030;-69
2022/01/23 16:44:25;;;;;;;40.80;24.50;;;;;;;;;;4980823;28;20117;-70
2022/01/23 16:46:51;;;;;;;42.95;24.35;;;;;;;;;;4979960;28;20062;-71
2022/01/23 16:49:17;;;;;;;37.83;22.92;;;;;;;;;;4981729;28;20046;-71
2022/01/23 16:51:44;;;;;;;41.42;24.02;;;;;;;;;;4978098;28;20026;-70
2022/01/23 16:54:10;;;;;;;40.03;23.75;;;;;;;;;;4986563;28;20038;-70
2022/01/23 16:56:37;;;;;;;37.13;23.23;;;;;;;;;;4977646;28;20510;-71
2022/01/23 16:59:04;;;;;;;37.08;23.88;;;;;;;;;;4982441;28;20902;-69
2022/01/23 17:01:30;;;;;;;44.75;24.30;;;;;;;;;;4981509;28;20030;-69
2022/01/23 17:03:56;;;;;;;38.75;23.45;;;;;;;;;;4980188;28;20030;-70
2022/01/23 17:06:27;;;;;;;41.40;23.95;;;;;;;;;;4975443;28;20114;-70
2022/01/23 17:08:53;;;;;;;39.93;23.87;;;;;;;;;;4974103;28;20097;-70
2022/01/23 17:11:19;;;;;;;37.15;23.48;;;;;;;;;;4986206;28;20065;-70
2022/01/23 17:13:45;;;;;;;40.97;24.45;;;;;;;;;;4979431;28;20241;-70
2022/01/23 17:16:12;;;;;;;42.13;23.85;;;;;;;;;;4985291;28;20034;-69
2022/01/23 17:18:38;;;;;;;37.22;24.05;;;;;;;;;;4986641;28;20129;-70
2022/01/23 17:21:04;;;;;;;40.40;25.08;;;;;;;;;;4975412;28;20038;-74
2022/01/23 17:23:30;;;;;;;45.10;26.42;;;;;;;;;;4973725;28;20038;-71
2022/01/23 17:25:56;;;;;;;44.38;27.48;;;;;;;;;;4977195;28;20035;-69
2022/01/23 17:28:22;;;;;;;40.47;27.08;;;;;;;;;;4974530;28;20043;-69
2022/01/23 17:30:48;;;;;;;46.28;25.33;;;;;;;;;;4974860;28;20125;-70
2022/01/23 17:33:14;;;;;;;41.25;26.55;;;;;;;;;;4973610;28;20040;-69
2022/01/23 17:35:40;;;;;;;47.20;28.58;;;;;;;;;;5003167;28;20129;-70
2022/01/23 17:38:06;;;;;;;54.78;31.38;;;;;;;;;;4982131;28;20515;-69
2022/01/23 17:40:32;;;;;;;45.35;28.92;;;;;;;;;;4982007;28;20023;-69
2022/01/23 17:42:59;;;;;;;50.22;32.47;;;;;;;;;;5012487;28;20039;-71
2022/01/23 17:45:30;;;;;;;48.45;30.02;;;;;;;;;;4975154;28;20043;-70
2022/01/23 17:47:56;;;;;;;46.85;29.13;;;;;;;;;;4978788;28;20030;-69
2022/01/23 17:50:32;;;;;;;48.60;28.45;;;;;;;;;;4981045;28;20440;-69
2022/01/23 17:52:59;;;;;;;48.30;29.70;;;;;;;;;;4981844;28;20038;-69
2022/01/23 17:55:25;;;;;;;47.67;31.15;;;;;;;;;;4984666;28;20041;-69
2022/01/23 17:57:51;;;;;;;45.35;28.50;;;;;;;;;;4978179;28;20031;-68